createdAt,value
2018-09-24T07:21:30.803Z,526.50
2018-09-24T07:34:43.114Z,470.73
2018-09-24T07:37:17.274Z,428.50
2018-09-24T07:39:51.043Z,366.43
2018-09-24T07:42:25.823Z,371.93
2018-09-24T07:44:59.803Z,417.37
2018-09-24T07:47:33.842Z,397.80
2018-09-24T07:50:07.835Z,429.80
2018-09-24T07:52:42.138Z,383.63
2018-09-24T07:55:16.094Z,464.10
2018-09-24T07:57:50.987Z,486.67
2018-09-24T08:00:24.995Z,428.40
2018-09-24T08:02:59.021Z,368.90
2018-09-24T08:05:34.140Z,447.50
2018-09-24T08:08:09.095Z,429.80
2018-09-24T08:10:43.144Z,486.83
2018-09-24T08:13:17.146Z,430.57
2018-09-24T08:15:50.993Z,440.97
2018-09-24T08:18:24.838Z,377.30
2018-09-24T08:20:58.817Z,404.03
2018-09-24T08:23:32.632Z,350.57
2018-09-24T08:26:07.835Z,406.83
2018-09-24T08:28:42.528Z,439.43
2018-09-24T08:31:17.182Z,464.77
2018-09-24T08:33:50.915Z,489.47
2018-09-24T08:36:25.569Z,516.93
2018-09-24T08:39:00.406Z,559.57
2018-09-24T08:41:36.302Z,545.17
2018-09-24T08:44:10.003Z,549.97
2018-09-24T08:46:45.616Z,476.00
2018-09-24T08:49:19.368Z,481.77
2018-09-24T08:51:54.204Z,479.10
2018-09-24T08:54:28.047Z,521.80
2018-09-24T08:57:01.898Z,576.03
2018-09-24T08:59:35.760Z,582.33
2018-09-24T09:02:10.773Z,553.43
2018-09-24T09:04:44.470Z,542.37
2018-09-24T09:07:18.157Z,450.17
2018-09-24T09:09:52.009Z,463.33
2018-09-24T09:12:25.799Z,485.93
2018-09-24T09:14:59.928Z,453.20
2018-09-24T09:17:33.867Z,484.43
2018-09-24T09:20:08.007Z,479.37
2018-09-24T09:22:42.169Z,463.83
2018-09-24T09:25:16.549Z,478.83
2018-09-24T09:27:51.819Z,571.37
2018-09-24T09:30:26.752Z,627.30
2018-09-24T09:33:01.152Z,636.40
2018-09-24T09:35:36.385Z,632.33
2018-09-24T09:38:10.335Z,641.03
2018-09-24T09:40:44.835Z,594.23
2018-09-24T09:43:19.692Z,368.27
2018-09-24T09:45:54.843Z,421.23
2018-09-24T09:48:29.932Z,605.33
2018-09-24T09:51:03.981Z,617.90
2018-09-24T09:53:38.007Z,625.43
2018-09-24T09:56:11.946Z,493.93
2018-09-24T09:58:46.041Z,327.00
2018-09-24T10:01:20.055Z,422.17
2018-09-24T10:03:54.697Z,349.13
2018-09-24T10:06:28.724Z,414.50
2018-09-24T10:09:05.570Z,526.63
2018-09-24T10:11:40.834Z,446.30
2018-09-24T10:14:14.607Z,459.73
2018-09-24T10:16:48.825Z,479.83
2018-09-24T10:19:22.708Z,509.20
2018-09-24T10:21:56.648Z,492.73
2018-09-24T10:24:30.640Z,537.47
2018-09-24T10:27:04.643Z,498.97
2018-09-24T10:29:38.540Z,470.60
2018-09-24T10:32:12.432Z,444.80
2018-09-24T10:34:46.096Z,556.83
2018-09-24T10:37:20.319Z,429.07
2018-09-24T10:39:54.828Z,544.77
2018-09-24T10:42:30.063Z,426.97
2018-09-24T10:45:04.161Z,540.20
2018-09-24T10:47:37.922Z,396.20
2018-09-24T10:50:11.920Z,511.27
2018-09-24T10:52:45.891Z,477.60
2018-09-24T10:58:02.680Z,435.60
2018-09-24T11:00:36.591Z,512.97
2018-09-24T11:03:10.523Z,497.73
2018-09-24T11:05:44.685Z,660.10
2018-09-24T11:08:18.505Z,369.47
2018-09-24T11:10:52.404Z,371.20
2018-09-24T11:13:26.394Z,588.03
2018-09-24T11:16:00.395Z,695.73
2018-09-24T11:18:34.238Z,672.03
2018-09-24T11:21:08.164Z,699.77
2018-09-24T11:23:41.877Z,615.60
2018-09-24T11:28:49.710Z,613.87
2018-09-24T11:31:23.660Z,566.00
2018-09-24T11:33:57.360Z,581.63
2018-09-24T11:36:31.561Z,639.77
2018-09-24T11:39:05.386Z,710.47
2018-09-24T11:41:39.379Z,721.73
2018-09-24T11:44:13.274Z,483.27
2018-09-24T11:46:47.186Z,533.10
2018-09-24T11:49:20.998Z,546.27
2018-09-24T11:51:54.972Z,553.17
2018-09-24T11:54:29.012Z,681.67
2018-09-24T12:04:12.872Z,602.87
2018-09-24T12:06:52.272Z,544.23
2018-09-24T12:09:26.528Z,428.40
2018-09-24T12:12:00.897Z,350.37
2018-09-24T12:17:15.010Z,497.73
2018-09-24T12:19:48.950Z,551.33
2018-09-24T12:22:23.220Z,491.37
2018-09-24T12:24:57.200Z,513.10
2018-09-24T12:27:31.203Z,560.50
2018-09-24T12:30:05.332Z,488.07
2018-09-24T12:32:39.131Z,685.40
2018-09-24T12:35:14.869Z,518.80
2018-09-24T12:37:51.000Z,482.70
2018-09-24T12:40:25.067Z,562.10
2018-09-24T12:50:08.075Z,521.90
2018-09-24T12:52:41.912Z,689.70
2018-09-24T12:55:16.555Z,691.10
2018-09-24T12:57:50.368Z,690.33
2018-09-24T13:00:24.349Z,552.90
2018-09-24T13:02:58.654Z,450.97
2018-09-24T13:05:32.467Z,436.33
2018-09-24T13:08:06.377Z,420.63
2018-09-24T13:10:40.260Z,414.30
2018-09-24T13:13:14.205Z,407.00
2018-09-24T13:15:47.985Z,407.33
2018-09-24T13:18:21.854Z,556.37
2018-09-24T13:20:55.832Z,411.77
2018-09-24T13:23:29.834Z,442.10
2018-09-24T13:26:03.706Z,677.70
2018-09-24T13:28:37.466Z,538.90
2018-09-24T13:31:11.501Z,583.80
2018-09-24T13:33:45.620Z,607.17
2018-09-24T13:36:19.624Z,621.97
2018-09-24T13:38:53.433Z,603.87
2018-09-24T13:41:27.365Z,667.23
2018-09-24T13:44:00.989Z,604.10
2018-09-24T13:46:34.963Z,519.03
2018-09-24T13:49:08.938Z,429.83
2018-09-24T13:51:42.966Z,528.87
2018-09-24T13:54:16.915Z,614.10
2018-09-24T13:56:52.955Z,509.53
2018-09-24T13:59:28.303Z,413.93
2018-09-24T14:02:03.516Z,405.53
2018-09-24T14:04:37.673Z,375.07
2018-09-24T14:07:11.676Z,406.80
2018-09-24T14:09:45.666Z,408.80
2018-09-24T14:12:19.461Z,396.83
2018-09-24T14:14:53.380Z,407.27
2018-09-24T14:17:27.386Z,455.37
2018-09-24T14:20:06.888Z,476.57
2018-09-24T14:22:41.157Z,492.70
2018-09-24T14:25:15.365Z,491.40
2018-09-24T14:27:49.468Z,489.00
2018-09-24T14:30:23.341Z,447.63
2018-09-24T14:32:57.255Z,417.53
2018-09-24T14:35:31.526Z,404.43
2018-09-24T14:38:05.488Z,404.87
2018-09-24T14:40:39.359Z,453.70
2018-09-24T14:43:14.315Z,482.18
2018-09-24T14:46:44.423Z,563.50
2018-09-24T14:52:58.019Z,663.63
2018-09-24T14:55:32.370Z,683.77
2018-09-24T14:58:06.734Z,683.60
2018-09-24T15:00:41.232Z,649.60
2018-09-24T15:03:15.475Z,661.57
2018-09-24T15:05:49.841Z,709.17
2018-09-24T15:08:24.328Z,686.00
2018-09-24T15:10:58.669Z,768.57
2018-09-24T15:13:33.004Z,800.43
2018-09-24T15:16:07.393Z,731.20
2018-09-24T15:18:44.962Z,832.07
2018-09-24T15:21:20.644Z,838.97
2018-09-24T15:23:54.950Z,796.37
2018-09-24T15:26:29.347Z,704.87
2018-09-24T15:29:07.152Z,666.20
2018-09-24T15:31:41.480Z,480.17
2018-09-24T15:34:16.316Z,361.80
2018-09-24T15:36:50.691Z,332.67
2018-09-24T15:39:25.056Z,388.77
2018-09-24T15:42:00.313Z,477.37
2018-09-24T15:44:34.781Z,560.47
2018-09-24T15:47:09.017Z,618.77
2018-09-24T15:49:43.339Z,652.47
2018-09-24T15:52:17.868Z,687.43
2018-09-24T15:54:52.337Z,703.77
2018-09-24T15:57:26.596Z,728.87
2018-09-24T16:00:04.999Z,702.53
2018-09-24T16:02:40.298Z,719.57
2018-09-24T16:05:14.742Z,744.67
2018-09-24T16:07:49.059Z,779.87
2018-09-24T16:10:23.363Z,692.00
2018-09-24T16:12:57.654Z,804.60
2018-09-24T16:15:31.867Z,784.57
2018-09-24T16:18:06.359Z,796.93
2018-09-24T16:20:40.691Z,784.57
2018-09-24T16:23:15.112Z,777.73
2018-09-24T16:25:49.519Z,747.60
2018-09-24T16:28:24.033Z,753.53
2018-09-24T16:30:58.416Z,741.87
2018-09-24T16:33:32.730Z,728.33
2018-09-24T16:36:06.824Z,709.30
2018-09-24T16:38:40.983Z,708.37
2018-09-24T16:41:15.424Z,698.50
2018-09-24T16:43:49.809Z,684.10
2018-09-24T16:46:24.055Z,639.70
2018-09-24T16:48:58.379Z,613.53
2018-09-24T16:51:32.724Z,639.97
2018-09-24T16:54:07.098Z,591.33
2018-09-24T16:56:41.512Z,566.90
2018-09-24T16:59:15.898Z,505.63
2018-09-24T17:01:50.244Z,441.67
2018-09-24T17:04:24.622Z,488.07
2018-09-24T17:06:58.879Z,426.10
2018-09-24T17:09:33.242Z,390.10
2018-09-24T17:12:07.552Z,393.20
2018-09-24T17:14:41.942Z,353.13
2018-09-24T17:17:16.371Z,352.93
2018-09-24T17:19:50.663Z,320.50
2018-09-24T17:22:25.195Z,310.80
2018-09-24T17:24:59.462Z,307.70
2018-09-24T17:27:33.819Z,296.43
2018-09-24T17:30:08.214Z,299.73
2018-09-24T17:32:42.474Z,327.93
2018-09-24T17:35:16.854Z,345.63
2018-09-24T17:37:51.126Z,398.30
2018-09-24T17:40:25.570Z,405.60
2018-09-24T17:42:59.826Z,382.43
2018-09-24T17:45:34.221Z,383.03
2018-09-24T17:48:08.423Z,397.43
2018-09-24T17:50:42.631Z,390.93
2018-09-24T17:53:16.944Z,402.40
2018-09-24T17:55:51.163Z,408.13
2018-09-24T17:58:25.476Z,408.57
2018-09-24T18:00:59.992Z,426.60
2018-09-24T18:03:34.304Z,432.87
2018-09-24T18:06:08.695Z,456.63
2018-09-24T18:08:43.116Z,494.87
2018-09-24T18:11:17.572Z,491.87
2018-09-24T18:13:51.814Z,522.77
2018-09-24T18:16:25.997Z,538.40
2018-09-24T18:19:00.424Z,508.27
2018-09-24T18:21:35.055Z,476.13
2018-09-24T18:24:09.485Z,503.63
2018-09-24T18:26:43.886Z,569.23
2018-09-24T18:29:18.102Z,533.80
2018-09-24T18:31:52.399Z,471.70
2018-09-24T18:34:26.944Z,388.03
2018-09-24T18:37:02.426Z,378.43
2018-09-24T18:39:36.747Z,375.80
2018-09-24T18:42:11.092Z,372.67
2018-09-24T18:44:45.296Z,307.80
2018-09-24T18:47:19.613Z,394.73
2018-09-24T18:49:53.886Z,396.73
2018-09-24T18:52:28.252Z,511.23
2018-09-24T18:55:02.567Z,539.27
2018-09-24T18:57:36.764Z,596.13
2018-09-24T19:00:11.652Z,611.73
2018-09-24T19:02:45.977Z,629.70
2018-09-24T19:05:20.298Z,622.47
2018-09-24T19:07:54.560Z,646.80
2018-09-24T19:10:28.983Z,694.63
2018-09-24T19:13:03.206Z,674.63
2018-09-24T19:15:37.568Z,664.63
2018-09-24T19:18:11.993Z,646.57
2018-09-24T19:20:46.398Z,630.67
2018-09-24T19:23:20.763Z,584.43
2018-09-24T19:25:55.097Z,622.40
2018-09-24T19:28:29.521Z,640.50
2018-09-24T19:31:03.712Z,656.97
2018-09-24T19:33:38.005Z,645.60
2018-09-24T19:36:15.716Z,657.20
2018-09-24T19:38:50.078Z,654.97
2018-09-24T19:41:24.648Z,676.90
2018-09-24T19:43:58.888Z,681.63
2018-09-24T19:46:33.224Z,649.23
2018-09-24T19:49:07.469Z,653.23
2018-09-24T19:51:41.589Z,649.03
2018-09-24T19:54:16.088Z,657.67
2018-09-24T19:56:50.510Z,666.97
2018-09-24T19:59:24.880Z,672.07
2018-09-24T20:01:59.167Z,746.80
2018-09-24T20:04:33.435Z,797.83
2018-09-24T20:07:07.809Z,791.87
2018-09-24T20:09:42.021Z,839.90
2018-09-24T20:12:16.516Z,845.77
2018-09-24T20:14:50.799Z,837.00
2018-09-24T20:17:25.203Z,832.60
2018-09-24T20:19:59.428Z,822.20
2018-09-24T20:22:33.704Z,817.57
2018-09-24T20:25:08.103Z,845.57
2018-09-24T20:27:42.355Z,818.57
2018-09-24T20:30:16.833Z,850.57
2018-09-24T20:32:51.122Z,779.83
2018-09-24T20:35:25.595Z,775.90
2018-09-24T20:37:59.853Z,786.23
2018-09-24T20:40:34.116Z,782.53
2018-09-24T20:43:08.421Z,762.83
2018-09-24T20:45:42.675Z,794.30
2018-09-24T20:48:17.073Z,792.87
2018-09-24T20:50:51.450Z,718.67
2018-09-24T20:53:25.698Z,732.00
2018-09-24T20:56:00.046Z,753.03
2018-09-24T20:58:34.302Z,796.63
2018-09-24T21:01:08.684Z,832.67
2018-09-24T21:03:42.919Z,826.83
2018-09-24T21:06:17.954Z,845.47
2018-09-24T21:08:52.159Z,854.10
2018-09-24T21:11:26.557Z,847.77
2018-09-24T21:14:02.443Z,851.80
2018-09-24T21:16:37.478Z,851.87
2018-09-24T21:19:12.287Z,835.80
2018-09-24T21:21:47.462Z,845.93
2018-09-24T21:24:21.916Z,833.27
2018-09-24T21:26:57.684Z,868.80
2018-09-24T21:29:33.494Z,824.53
2018-09-24T21:32:07.757Z,837.20
2018-09-24T21:34:42.146Z,850.40
2018-09-24T21:37:16.951Z,846.90
2018-09-24T21:39:52.403Z,847.97
2018-09-24T21:42:26.949Z,868.90
2018-09-24T21:45:06.472Z,838.30
2018-09-24T21:47:41.456Z,837.67
2018-09-24T21:50:16.498Z,837.90
2018-09-24T21:52:51.797Z,813.73
2018-09-24T21:55:27.379Z,801.83
2018-09-24T21:58:06.895Z,804.27
2018-09-24T22:00:41.459Z,821.17
2018-09-24T22:03:15.687Z,845.90
2018-09-24T22:05:50.798Z,816.10
2018-09-24T22:08:25.483Z,796.40
2018-09-24T22:10:59.918Z,815.33
2018-09-24T22:13:34.311Z,806.97
2018-09-24T22:16:08.700Z,802.70
2018-09-24T22:18:42.919Z,797.90
2018-09-24T22:21:17.372Z,769.37
2018-09-24T22:23:51.830Z,714.53
2018-09-24T22:26:26.123Z,746.30
2018-09-24T22:29:00.368Z,731.47
2018-09-24T22:31:35.123Z,723.40
2018-09-24T22:34:09.346Z,723.80
2018-09-24T22:36:43.736Z,757.70
2018-09-24T22:39:18.214Z,748.60
2018-09-24T22:41:52.765Z,728.30
2018-09-24T22:44:27.081Z,757.57
2018-09-24T22:47:01.420Z,745.90
2018-09-24T22:49:35.884Z,758.07
2018-09-24T22:52:10.228Z,765.97
2018-09-24T22:54:44.540Z,731.27
2018-09-24T22:57:18.751Z,750.63
2018-09-24T22:59:53.175Z,724.03
2018-09-24T23:02:28.045Z,726.60
2018-09-24T23:05:02.540Z,717.53
2018-09-24T23:07:36.801Z,694.57
2018-09-24T23:10:11.495Z,709.53
2018-09-24T23:12:46.321Z,715.13
2018-09-24T23:15:20.791Z,683.27
2018-09-24T23:17:55.176Z,660.90
2018-09-24T23:20:29.711Z,679.70
2018-09-24T23:23:04.181Z,696.23
2018-09-24T23:25:38.450Z,711.10
2018-09-24T23:28:12.711Z,723.77
2018-09-24T23:30:47.006Z,695.10
2018-09-24T23:33:21.381Z,687.40
2018-09-24T23:35:55.747Z,721.27
2018-09-24T23:38:30.188Z,694.73
2018-09-24T23:41:04.537Z,699.77
2018-09-24T23:43:38.737Z,623.17
2018-09-24T23:46:13.017Z,639.87
2018-09-24T23:48:47.350Z,659.53
2018-09-24T23:51:21.659Z,655.67
2018-09-24T23:53:56.034Z,584.23
2018-09-24T23:56:30.239Z,551.60
2018-09-24T23:59:04.679Z,556.23
